Time;durP1;ratioP1;P1;durP2;ratioP2;P2;SDS_P1;SDS_P2;PMS_P1;PMS_P2;Temp;Humidity;BMP_temperature;BMP_pressure;BME280_temperature;BME280_humidity;BME280_pressure;Samples;Min_cycle;Max_cycle;Signal;HPM_P1;HPM_P2
2023/06/05 00:02:04;;;;;;;11.75;5.38;;;;;;;;;;10171374;28;20572;-70
2023/06/05 00:07:01;;;;;;;5.82;4.57;;;;;;;;;;10155133;28;20049;-69
2023/06/05 00:11:57;;;;;;;7.40;5.55;;;;;;;;;;10162679;28;20456;-70
2023/06/05 00:16:56;;;;;;;5.65;4.90;;;;;;;;;;10171987;28;20077;-70
2023/06/05 00:21:52;;;;;;;6.63;5.03;;;;;;;;;;10165852;28;20104;-70
2023/06/05 00:26:49;;;;;;;8.90;5.25;;;;;;;;;;10164072;28;20105;-70
2023/06/05 00:31:46;;;;;;;9.10;5.40;;;;;;;;;;10106664;28;1414907;-70
2023/06/05 00:36:42;;;;;;;12.25;6.75;;;;;;;;;;10166498;28;20046;-69
2023/06/05 00:41:41;;;;;;;8.57;5.55;;;;;;;;;;10164552;28;20053;-70
2023/06/05 00:46:39;;;;;;;8.57;5.93;;;;;;;;;;10166231;28;20054;-70
2023/06/05 00:51:35;;;;;;;9.90;6.30;;;;;;;;;;10159095;28;20497;-73
2023/06/05 00:56:33;;;;;;;9.80;6.53;;;;;;;;;;10162622;28;20042;-73
2023/06/05 01:01:29;;;;;;;7.13;6.32;;;;;;;;;;10161978;28;20173;-71
2023/06/05 01:06:26;;;;;;;11.13;6.25;;;;;;;;;;11202845;23;20064;-67
2023/06/05 01:11:37;;;;;;;7.60;6.80;;;;;;;;;;10148276;28;20057;-67
2023/06/05 01:16:34;;;;;;;11.65;6.88;;;;;;;;;;10115773;28;20051;-67
2023/06/05 01:21:35;;;;;;;10.00;7.28;;;;;;;;;;10129301;28;20137;-67
2023/06/05 01:27:00;;;;;;;8.45;7.47;;;;;;;;;;10167291;28;20045;-65
2023/06/05 01:32:02;;;;;;;11.25;7.38;;;;;;;;;;10161749;28;20133;-67
2023/06/05 01:36:59;;;;;;;;;;;;;;;;;;10164230;28;20053;-67
2023/06/05 01:41:57;;;;;;;9.90;7.25;;;;;;;;;;10160087;28;20335;-67
2023/06/05 01:46:53;;;;;;;13.57;8.65;;;;;;;;;;10157938;28;20062;-67
2023/06/05 01:51:49;;;;;;;13.40;8.88;;;;;;;;;;10150999;28;20496;-67
2023/06/05 01:56:47;;;;;;;14.40;9.27;;;;;;;;;;10140413;28;20068;-67
2023/06/05 02:01:44;;;;;;;12.65;8.63;;;;;;;;;;10165211;28;20506;-66
2023/06/05 02:06:43;;;;;;;10.95;8.85;;;;;;;;;;10165891;28;20053;-66
2023/06/05 02:11:42;;;;;;;13.27;8.75;;;;;;;;;;10166255;28;20068;-67
2023/06/05 02:16:39;;;;;;;8.75;7.80;;;;;;;;;;10169075;28;20050;-67
2023/06/05 02:21:36;;;;;;;9.23;8.23;;;;;;;;;;10164207;28;20065;-66
2023/06/05 02:26:33;;;;;;;11.07;8.63;;;;;;;;;;10163274;28;20085;-66
2023/06/05 02:31:29;;;;;;;12.20;10.50;;;;;;;;;;10167565;28;20054;-66
2023/06/05 02:36:26;;;;;;;10.07;9.07;;;;;;;;;;10170007;28;20061;-67
2023/06/05 02:41:22;;;;;;;11.73;9.85;;;;;;;;;;10163448;28;20054;-67
2023/06/05 02:46:19;;;;;;;10.82;9.68;;;;;;;;;;10169134;28;20045;-67
2023/06/05 02:51:15;;;;;;;10.30;9.27;;;;;;;;;;10175252;28;20050;-67
2023/06/05 02:56:13;;;;;;;12.38;9.32;;;;;;;;;;10168300;28;20538;-67
2023/06/05 03:01:11;;;;;;;16.58;11.43;;;;;;;;;;10172584;28;20045;-68
2023/06/05 03:06:07;;;;;;;12.63;9.68;;;;;;;;;;10176210;28;20056;-67
2023/06/05 03:11:04;;;;;;;12.40;10.05;;;;;;;;;;10180523;28;20081;-66
2023/06/05 03:16:01;;;;;;;12.70;11.20;;;;;;;;;;10172011;28;20092;-66
2023/06/05 03:20:57;;;;;;;12.68;10.50;;;;;;;;;;10157731;28;20423;-66
2023/06/05 03:25:54;;;;;;;14.68;10.43;;;;;;;;;;10172850;28;20046;-68
2023/06/05 03:30:51;;;;;;;10.88;9.73;;;;;;;;;;10181114;28;20531;-68
2023/06/05 03:35:48;;;;;;;13.35;11.85;;;;;;;;;;10175510;28;20062;-73
2023/06/05 03:41:07;;;;;;;11.52;10.43;;;;;;;;;;10163487;28;20109;-73
2023/06/05 03:46:07;;;;;;;13.27;11.35;;;;;;;;;;10167722;28;20579;-71
2023/06/05 03:51:07;;;;;;;18.38;11.73;;;;;;;;;;10172000;28;20613;-72
2023/06/05 03:57:26;;;;;;;14.02;11.15;;;;;;;;;;10175282;28;20116;-72
2023/06/05 04:09:35;;;;;;;14.13;9.93;;;;;;;;;;10159916;28;20462;-72
2023/06/05 04:15:44;;;;;;;11.73;10.52;;;;;;;;;;10006139;29;20047;-72
2023/06/05 04:27:44;;;;;;;14.75;13.00;;;;;;;;;;10040438;29;20035;-72
2023/06/05 04:33:52;;;;;;;15.68;12.07;;;;;;;;;;9923652;29;20084;-72
2023/06/05 04:45:26;;;;;;;15.77;13.83;;;;;;;;;;9874587;29;20096;-73
2023/06/05 04:51:50;;;;;;;13.90;12.65;;;;;;;;;;10025510;28;20555;-72
2023/06/05 05:03:47;;;;;;;18.60;13.45;;;;;;;;;;10071439;28;20061;-74
2023/06/05 05:09:22;;;;;;;15.25;13.75;;;;;;;;;;10071288;28;20058;-74
2023/06/05 05:15:26;;;;;;;15.13;13.52;;;;;;;;;;10032809;28;20047;-74
2023/06/05 05:26:58;;;;;;;15.60;13.95;;;;;;;;;;9895144;29;20052;-73
2023/06/05 05:32:00;;;;;;;16.40;13.23;;;;;;;;;;9980964;29;20064;-74
2023/06/05 05:37:10;;;;;;;14.95;13.27;;;;;;;;;;9983497;29;20505;-73
2023/06/05 05:42:36;;;;;;;14.82;13.43;;;;;;;;;;9973269;29;20549;-73
2023/06/05 05:54:41;;;;;;;;;;;;;;;;;;;;;
2023/06/05 06:06:06;;;;;;;13.35;11.95;;;;;;;;;;9857977;29;20508;-74
2023/06/05 06:24:02;;;;;;;12.60;11.43;;;;;;;;;;10098639;28;20035;-74
2023/06/05 06:35:31;;;;;;;13.55;10.95;;;;;;;;;;9805965;29;20045;-74
2023/06/05 06:40:28;;;;;;;;;;;;;;;;;;9979809;28;20653;-74
2023/06/05 06:46:13;;;;;;;;;;;;;;;;;;;;;
2023/06/05 06:58:05;;;;;;;13.85;10.10;;;;;;;;;;10079012;28;20067;-73
2023/06/05 07:04:22;;;;;;;;;;;;;;;;;;;;;
2023/06/05 07:09:52;;;;;;;12.23;9.70;;;;;;;;;;10062516;28;20047;-73
2023/06/05 07:16:01;;;;;;;;;;;;;;;;;;;;;
2023/06/05 07:38:58;;;;;;;13.98;8.05;;;;;;;;;;10187328;23;20079;-74
2023/06/05 07:44:53;;;;;;;;;;;;;;;;;;;;;
2023/06/05 09:33:56;;;;;;;;;;;;;;;;;;;;;
2023/06/05 11:15:06;;;;;;;7.80;7.00;;;;;;;;;;10091008;28;20050;-73
2023/06/05 11:20:23;;;;;;;7.22;6.57;;;;;;;;;;10178987;28;20717;-74
2023/06/05 11:25:36;;;;;;;;;;;;;;;;;;;;;
2023/06/05 11:31:04;;;;;;;6.25;5.65;;;;;;;;;;10168302;28;20467;-72
2023/06/05 11:36:24;;;;;;;6.88;6.15;;;;;;;;;;10173447;28;20099;-73
2023/06/05 11:41:21;;;;;;;6.53;5.95;;;;;;;;;;10192198;28;20450;-73
2023/06/05 11:46:34;;;;;;;6.43;5.55;;;;;;;;;;10182511;28;20042;-73
2023/06/05 11:51:37;;;;;;;6.32;5.72;;;;;;;;;;10176969;28;20046;-73
2023/06/05 11:56:50;;;;;;;;;;;;;;;;;;10158285;28;20144;-73
2023/06/05 12:01:47;;;;;;;6.45;5.80;;;;;;;;;;10173662;28;19930;-73
2023/06/05 12:06:50;;;;;;;7.65;6.18;;;;;;;;;;10169976;28;20046;-73
2023/06/05 12:12:21;;;;;;;6.32;5.72;;;;;;;;;;10159261;28;20143;-73
2023/06/05 12:18:07;;;;;;;;;;;;;;;;;;;;;
2023/06/05 12:23:38;;;;;;;5.75;5.25;;;;;;;;;;10082637;28;20051;-73
2023/06/05 12:29:42;;;;;;;7.18;5.82;;;;;;;;;;10086499;28;20134;-73
2023/06/05 12:34:55;;;;;;;6.65;5.40;;;;;;;;;;10062863;28;20087;-73
2023/06/05 12:40:10;;;;;;;6.90;5.38;;;;;;;;;;9939125;29;20053;-73
2023/06/05 12:45:49;;;;;;;7.70;6.20;;;;;;;;;;9955522;28;20051;-73
2023/06/05 12:51:13;;;;;;;7.03;5.55;;;;;;;;;;10031833;28;20043;-73
2023/06/05 12:56:51;;;;;;;7.60;6.00;;;;;;;;;;10059816;28;20134;-73
2023/06/05 13:02:08;;;;;;;7.45;5.47;;;;;;;;;;10051630;28;20130;-72
2023/06/05 13:07:20;;;;;;;7.80;6.18;;;;;;;;;;10059886;28;20103;-73
2023/06/05 13:12:37;;;;;;;5.40;5.00;;;;;;;;;;10064056;28;20047;-72
2023/06/05 13:17:50;;;;;;;7.28;6.32;;;;;;;;;;10161855;28;20065;-72
2023/06/05 13:23:00;;;;;;;6.63;6.00;;;;;;;;;;10156607;28;20051;-72
2023/06/05 13:28:01;;;;;;;7.07;6.35;;;;;;;;;;10166194;28;20718;-72
2023/06/05 13:32:57;;;;;;;5.93;5.43;;;;;;;;;;10149005;28;20073;-73
2023/06/05 13:37:54;;;;;;;6.72;5.40;;;;;;;;;;10159092;28;20408;-73
2023/06/05 13:42:51;;;;;;;7.05;5.43;;;;;;;;;;10157325;28;20054;-73
2023/06/05 13:47:56;;;;;;;6.10;5.60;;;;;;;;;;10161000;28;20075;-73
2023/06/05 13:53:01;;;;;;;6.13;5.50;;;;;;;;;;10156632;28;20049;-73
2023/06/05 13:58:01;;;;;;;5.97;5.38;;;;;;;;;;10168705;28;20046;-73
2023/06/05 14:02:59;;;;;;;5.73;5.17;;;;;;;;;;10162332;28;20586;-73
2023/06/05 14:07:55;;;;;;;6.30;5.60;;;;;;;;;;10157991;28;20050;-73
2023/06/05 14:12:52;;;;;;;5.72;4.80;;;;;;;;;;10150142;28;20141;-73
2023/06/05 14:18:25;;;;;;;5.72;4.93;;;;;;;;;;10389138;22;20054;-72
2023/06/05 14:23:23;;;;;;;7.57;5.15;;;;;;;;;;10160869;28;20058;-72
2023/06/05 14:28:48;;;;;;;7.57;5.57;;;;;;;;;;10196879;22;20138;-72
2023/06/05 14:33:46;;;;;;;7.57;6.35;;;;;;;;;;10089091;28;20642;-73
2023/06/05 14:38:42;;;;;;;6.72;5.88;;;;;;;;;;10082376;28;20043;-73
2023/06/05 14:43:39;;;;;;;8.75;5.70;;;;;;;;;;10074217;28;20117;-72
2023/06/05 14:48:35;;;;;;;7.50;5.82;;;;;;;;;;10224774;23;20121;-72
2023/06/05 14:53:32;;;;;;;6.20;5.28;;;;;;;;;;10137411;28;20051;-72
2023/06/05 14:58:28;;;;;;;6.15;5.53;;;;;;;;;;10127160;28;20039;-72
2023/06/05 15:03:24;;;;;;;7.07;5.72;;;;;;;;;;10108888;28;20541;-73
2023/06/05 15:08:21;;;;;;;6.25;5.40;;;;;;;;;;10115463;28;20061;-71
2023/06/05 15:13:20;;;;;;;7.38;5.78;;;;;;;;;;10107436;28;20046;-73
2023/06/05 15:18:16;;;;;;;5.82;5.20;;;;;;;;;;10125742;28;20069;-71
2023/06/05 15:23:13;;;;;;;6.45;5.60;;;;;;;;;;10105322;28;20525;-72
2023/06/05 15:28:12;;;;;;;7.00;5.40;;;;;;;;;;10119206;28;20055;-72
2023/06/05 15:33:09;;;;;;;8.30;5.47;;;;;;;;;;10132381;28;20046;-72
2023/06/05 15:38:06;;;;;;;7.68;5.45;;;;;;;;;;10112822;28;20072;-72
2023/06/05 15:43:05;;;;;;;6.43;5.65;;;;;;;;;;10123670;28;20408;-75
2023/06/05 15:48:02;;;;;;;5.93;5.35;;;;;;;;;;10120676;28;20085;-75
2023/06/05 15:52:58;;;;;;;6.18;4.95;;;;;;;;;;10117174;28;20401;-76
2023/06/05 15:57:55;;;;;;;7.57;5.22;;;;;;;;;;10096792;28;20071;-76
2023/06/05 16:02:52;;;;;;;9.00;5.10;;;;;;;;;;10111921;28;20068;-74
2023/06/05 16:07:49;;;;;;;7.68;5.47;;;;;;;;;;10131980;28;20054;-75
2023/06/05 16:12:45;;;;;;;6.95;5.55;;;;;;;;;;10120661;28;20077;-73
2023/06/05 16:17:42;;;;;;;6.18;5.50;;;;;;;;;;10116348;28;20047;-72
2023/06/05 16:22:38;;;;;;;6.95;4.80;;;;;;;;;;10132091;28;20102;-74
2023/06/05 16:27:35;;;;;;;6.75;4.78;;;;;;;;;;10101310;28;20106;-73
2023/06/05 16:32:31;;;;;;;6.60;5.45;;;;;;;;;;10128692;28;20050;-73
2023/06/05 16:37:29;;;;;;;6.03;5.43;;;;;;;;;;10109225;28;20097;-73
2023/06/05 16:42:26;;;;;;;5.90;5.00;;;;;;;;;;10092710;28;20071;-73
2023/06/05 16:47:23;;;;;;;6.03;5.07;;;;;;;;;;10116711;28;20082;-73
2023/06/05 16:52:19;;;;;;;5.95;5.35;;;;;;;;;;10110938;28;20457;-73
2023/06/05 16:57:16;;;;;;;5.07;4.57;;;;;;;;;;10094074;28;20092;-73
2023/06/05 17:02:12;;;;;;;7.53;5.30;;;;;;;;;;10122433;28;20065;-73
2023/06/05 17:07:10;;;;;;;7.05;5.10;;;;;;;;;;10112441;28;20658;-73
2023/06/05 17:12:06;;;;;;;5.43;4.82;;;;;;;;;;10098208;28;20078;-73
2023/06/05 17:17:03;;;;;;;6.28;5.65;;;;;;;;;;10088976;28;20515;-73
2023/06/05 17:21:59;;;;;;;7.15;5.10;;;;;;;;;;10077236;28;20049;-74
2023/06/05 17:26:56;;;;;;;6.22;5.57;;;;;;;;;;10092220;28;20038;-73
2023/06/05 17:31:53;;;;;;;6.80;5.18;;;;;;;;;;10091847;28;20042;-73
2023/06/05 17:36:50;;;;;;;6.22;5.50;;;;;;;;;;10094404;28;20066;-73
2023/06/05 17:41:46;;;;;;;6.45;5.65;;;;;;;;;;10076831;28;20465;-72
2023/06/05 17:46:43;;;;;;;5.68;5.15;;;;;;;;;;10084731;28;20043;-73
2023/06/05 17:51:39;;;;;;;10.13;5.78;;;;;;;;;;10086612;28;20800;-71
2023/06/05 17:56:37;;;;;;;6.63;5.40;;;;;;;;;;10098656;28;20106;-72
2023/06/05 18:01:33;;;;;;;5.70;5.13;;;;;;;;;;10102877;28;20050;-71
2023/06/05 18:06:30;;;;;;;11.13;5.38;;;;;;;;;;10105058;28;20042;-72
2023/06/05 18:11:26;;;;;;;6.57;5.40;;;;;;;;;;10093287;28;20054;-72
2023/06/05 18:16:23;;;;;;;5.43;4.93;;;;;;;;;;10103941;28;20053;-73
2023/06/05 18:21:19;;;;;;;7.10;4.57;;;;;;;;;;10116629;28;20070;-72
2023/06/05 18:26:20;;;;;;;8.50;5.22;;;;;;;;;;10100948;28;20429;-72
2023/06/05 18:31:18;;;;;;;7.70;5.90;;;;;;;;;;10104755;28;20365;-71
2023/06/05 18:36:15;;;;;;;5.95;5.28;;;;;;;;;;10105656;28;20074;-72
2023/06/05 18:41:11;;;;;;;7.57;5.38;;;;;;;;;;10114428;28;20050;-73
2023/06/05 18:46:09;;;;;;;6.35;5.07;;;;;;;;;;10108169;28;20047;-72
2023/06/05 18:51:06;;;;;;;6.47;5.00;;;;;;;;;;10105305;28;20045;-72
2023/06/05 18:56:03;;;;;;;9.43;5.65;;;;;;;;;;10107759;28;20042;-72
2023/06/05 19:00:59;;;;;;;7.88;6.20;;;;;;;;;;10105554;28;20113;-72
2023/06/05 19:05:55;;;;;;;8.30;4.60;;;;;;;;;;10116813;28;20125;-72
2023/06/05 19:10:52;;;;;;;8.75;5.60;;;;;;;;;;10099704;28;20050;-72
2023/06/05 19:15:49;;;;;;;7.22;5.10;;;;;;;;;;10121693;28;20042;-72
2023/06/05 19:20:47;;;;;;;6.78;5.10;;;;;;;;;;10093107;28;20058;-72
2023/06/05 19:25:44;;;;;;;7.55;4.95;;;;;;;;;;10098925;28;20050;-72
2023/06/05 19:30:40;;;;;;;5.88;5.00;;;;;;;;;;10108559;28;20051;-72
2023/06/05 19:35:36;;;;;;;7.30;4.63;;;;;;;;;;10117482;28;20054;-72
2023/06/05 19:40:33;;;;;;;7.57;4.95;;;;;;;;;;10115385;28;20059;-72
2023/06/05 19:45:29;;;;;;;6.38;4.90;;;;;;;;;;10104909;28;20450;-72
2023/06/05 19:50:26;;;;;;;9.73;5.50;;;;;;;;;;10116585;28;20106;-72
2023/06/05 19:55:22;;;;;;;9.50;5.40;;;;;;;;;;10115740;28;20481;-73
2023/06/05 20:00:19;;;;;;;8.07;4.78;;;;;;;;;;10120304;28;20039;-73
2023/06/05 20:05:17;;;;;;;8.63;5.43;;;;;;;;;;10113595;28;20078;-72
2023/06/05 20:10:13;;;;;;;9.05;5.35;;;;;;;;;;10116499;28;20054;-72
2023/06/05 20:15:10;;;;;;;7.55;5.65;;;;;;;;;;10082538;28;20101;-73
2023/06/05 20:20:08;;;;;;;7.90;5.43;;;;;;;;;;10124864;28;20046;-69
2023/06/05 20:25:04;;;;;;;7.85;5.05;;;;;;;;;;10108845;28;20073;-70
2023/06/05 20:30:01;;;;;;;6.13;5.10;;;;;;;;;;10101909;28;20054;-71
2023/06/05 20:34:57;;;;;;;7.85;5.18;;;;;;;;;;10087409;28;20054;-71
2023/06/05 20:39:54;;;;;;;10.32;6.45;;;;;;;;;;10110083;28;20058;-68
2023/06/05 20:44:55;;;;;;;9.50;5.55;;;;;;;;;;10115167;28;20128;-68
2023/06/05 20:49:57;;;;;;;8.55;5.45;;;;;;;;;;10115288;28;20043;-68
2023/06/05 20:54:53;;;;;;;8.50;5.70;;;;;;;;;;10115670;28;20043;-68
2023/06/05 20:59:50;;;;;;;9.45;5.80;;;;;;;;;;10085440;28;20540;-68
2023/06/05 21:04:49;;;;;;;10.25;6.05;;;;;;;;;;10101094;28;20046;-67
2023/06/05 21:09:45;;;;;;;7.63;5.70;;;;;;;;;;10113564;28;20074;-67
2023/06/05 21:14:41;;;;;;;6.68;5.78;;;;;;;;;;10104701;28;20681;-68
2023/06/05 21:19:38;;;;;;;8.80;5.38;;;;;;;;;;10107893;28;20070;-68
2023/06/05 21:24:35;;;;;;;7.72;5.43;;;;;;;;;;10112500;28;20413;-69
2023/06/05 21:29:32;;;;;;;9.18;5.57;;;;;;;;;;10113351;28;20042;-67
2023/06/05 21:34:29;;;;;;;7.35;5.50;;;;;;;;;;10104571;28;20102;-67
2023/06/05 21:39:27;;;;;;;8.35;6.13;;;;;;;;;;10108558;28;20046;-67
2023/06/05 21:44:23;;;;;;;8.10;6.10;;;;;;;;;;10110413;28;20051;-67
2023/06/05 21:49:20;;;;;;;7.47;5.53;;;;;;;;;;10105947;28;20101;-66
2023/06/05 21:54:21;;;;;;;6.75;4.97;;;;;;;;;;10116956;28;20125;-65
2023/06/05 21:59:17;;;;;;;7.90;5.35;;;;;;;;;;10105900;28;20634;-65
2023/06/05 22:04:13;;;;;;;6.65;5.68;;;;;;;;;;10114693;28;20469;-69
2023/06/05 22:09:10;;;;;;;5.93;5.13;;;;;;;;;;10103699;28;20485;-69
2023/06/05 22:14:06;;;;;;;8.38;5.88;;;;;;;;;;10108854;28;20532;-68
2023/06/05 22:19:03;;;;;;;11.70;6.40;;;;;;;;;;10105976;28;20050;-68
2023/06/05 22:24:00;;;;;;;9.25;5.80;;;;;;;;;;10117374;28;20046;-68
2023/06/05 22:29:00;;;;;;;8.52;6.55;;;;;;;;;;10109309;28;20042;-67
2023/06/05 22:33:56;;;;;;;8.57;6.20;;;;;;;;;;10105578;28;20046;-67
2023/06/05 22:38:56;;;;;;;9.93;6.10;;;;;;;;;;10097837;28;20042;-69
2023/06/05 22:43:52;;;;;;;8.50;6.30;;;;;;;;;;10108950;28;20134;-68
2023/06/05 22:48:49;;;;;;;7.85;6.00;;;;;;;;;;10105562;28;20082;-67
2023/06/05 22:53:46;;;;;;;9.13;6.70;;;;;;;;;;10106021;28;20090;-70
2023/06/05 22:58:42;;;;;;;10.73;7.40;;;;;;;;;;10108262;28;20062;-72
2023/06/05 23:03:41;;;;;;;7.10;6.40;;;;;;;;;;10109553;28;20098;-71
2023/06/05 23:08:38;;;;;;;7.22;6.50;;;;;;;;;;10114664;28;20053;-71
2023/06/05 23:13:34;;;;;;;11.02;7.00;;;;;;;;;;10106575;28;20419;-69
2023/06/05 23:18:30;;;;;;;12.10;6.93;;;;;;;;;;10104313;28;20089;-71
2023/06/05 23:23:27;;;;;;;9.25;7.47;;;;;;;;;;10107701;28;20050;-72
2023/06/05 23:28:23;;;;;;;13.02;8.02;;;;;;;;;;10107591;28;20880;-73
2023/06/05 23:33:20;;;;;;;12.40;9.38;;;;;;;;;;10113945;28;20046;-72
2023/06/05 23:38:16;;;;;;;12.45;9.88;;;;;;;;;;10103052;28;20078;-70
2023/06/05 23:43:12;;;;;;;10.77;8.95;;;;;;;;;;10100267;28;20039;-68
2023/06/05 23:48:09;;;;;;;14.23;10.35;;;;;;;;;;10102240;28;20058;-68
2023/06/05 23:53:05;;;;;;;12.68;9.68;;;;;;;;;;10122479;28;20134;-65
2023/06/05 23:58:02;;;;;;;11.25;9.07;;;;;;;;;;10102460;28;20138;-65
